sensor_id;sensor_type;location;lat;lon;timestamp;temperature;humidity
15083;DHT22;7640;53.116;6.878;2023-06-10T00:01:30;18.10;99.90
15083;DHT22;7640;53.116;6.878;2023-06-10T00:04:00;18.10;99.90
15083;DHT22;7640;53.116;6.878;2023-06-10T00:06:29;18.00;99.90
15083;DHT22;7640;53.116;6.878;2023-06-10T00:09:03;18.00;99.90
15083;DHT22;7640;53.116;6.878;2023-06-10T00:11:32;18.00;99.90
15083;DHT22;7640;53.116;6.878;2023-06-10T00:14:01;18.00;99.90
15083;DHT22;7640;53.116;6.878;2023-06-10T00:16:31;17.90;99.90
15083;DHT22;7640;53.116;6.878;2023-06-10T00:19:00;17.90;99.90
15083;DHT22;7640;53.116;6.878;2023-06-10T00:21:32;17.80;99.90
15083;DHT22;7640;53.116;6.878;2023-06-10T00:24:04;17.80;99.90
15083;DHT22;7640;53.116;6.878;2023-06-10T00:26:33;17.70;99.90
15083;DHT22;7640;53.116;6.878;2023-06-10T00:29:01;17.70;99.90
15083;DHT22;7640;53.116;6.878;2023-06-10T00:31:31;17.70;99.90
15083;DHT22;7640;53.116;6.878;2023-06-10T00:34:01;17.60;99.90
15083;DHT22;7640;53.116;6.878;2023-06-10T00:36:30;17.60;99.90
15083;DHT22;7640;53.116;6.878;2023-06-10T00:38:59;17.50;99.90
15083;DHT22;7640;53.116;6.878;2023-06-10T00:41:27;17.60;99.90
15083;DHT22;7640;53.116;6.878;2023-06-10T00:43:57;17.50;99.90
15083;DHT22;7640;53.116;6.878;2023-06-10T00:46:26;17.50;99.90
15083;DHT22;7640;53.116;6.878;2023-06-10T00:48:56;17.40;99.90
15083;DHT22;7640;53.116;6.878;2023-06-10T00:51:25;17.40;99.90
15083;DHT22;7640;53.116;6.878;2023-06-10T00:53:54;17.30;99.90
15083;DHT22;7640;53.116;6.878;2023-06-10T00:56:23;17.30;99.90
15083;DHT22;7640;53.116;6.878;2023-06-10T00:58:52;17.30;99.90
15083;DHT22;7640;53.116;6.878;2023-06-10T01:01:20;17.20;99.90
15083;DHT22;7640;53.116;6.878;2023-06-10T01:03:49;17.20;99.90
15083;DHT22;7640;53.116;6.878;2023-06-10T01:06:28;17.20;99.90
15083;DHT22;7640;53.116;6.878;2023-06-10T01:09:10;17.10;99.90
15083;DHT22;7640;53.116;6.878;2023-06-10T01:11:45;17.10;99.90
15083;DHT22;7640;53.116;6.878;2023-06-10T01:14:17;17.00;99.90
15083;DHT22;7640;53.116;6.878;2023-06-10T01:16:45;17.00;99.90
15083;DHT22;7640;53.116;6.878;2023-06-10T01:19:15;17.00;99.90
15083;DHT22;7640;53.116;6.878;2023-06-10T01:21:46;16.90;99.90
15083;DHT22;7640;53.116;6.878;2023-06-10T01:24:15;16.90;99.90
15083;DHT22;7640;53.116;6.878;2023-06-10T01:26:47;16.80;99.90
15083;DHT22;7640;53.116;6.878;2023-06-10T01:29:20;16.80;99.90
15083;DHT22;7640;53.116;6.878;2023-06-10T01:31:56;16.80;99.90
15083;DHT22;7640;53.116;6.878;2023-06-10T01:34:28;16.70;99.90
15083;DHT22;7640;53.116;6.878;2023-06-10T01:37:00;16.70;99.90
15083;DHT22;7640;53.116;6.878;2023-06-10T01:39:32;16.70;99.90
15083;DHT22;7640;53.116;6.878;2023-06-10T01:42:00;16.60;99.90
15083;DHT22;7640;53.116;6.878;2023-06-10T01:44:30;16.60;99.90
15083;DHT22;7640;53.116;6.878;2023-06-10T01:46:59;16.60;99.90
15083;DHT22;7640;53.116;6.878;2023-06-10T01:49:27;16.50;99.90
15083;DHT22;7640;53.116;6.878;2023-06-10T01:51:56;16.50;99.90
15083;DHT22;7640;53.116;6.878;2023-06-10T01:54:28;16.50;99.90
15083;DHT22;7640;53.116;6.878;2023-06-10T01:56:57;16.40;99.90
15083;DHT22;7640;53.116;6.878;2023-06-10T01:59:25;16.40;99.90
15083;DHT22;7640;53.116;6.878;2023-06-10T02:01:54;16.40;99.90
15083;DHT22;7640;53.116;6.878;2023-06-10T02:04:22;16.30;99.90
15083;DHT22;7640;53.116;6.878;2023-06-10T02:06:51;16.30;99.90
15083;DHT22;7640;53.116;6.878;2023-06-10T02:09:20;16.20;99.90
15083;DHT22;7640;53.116;6.878;2023-06-10T02:11:51;16.20;99.90
15083;DHT22;7640;53.116;6.878;2023-06-10T02:14:19;16.20;99.90
15083;DHT22;7640;53.116;6.878;2023-06-10T02:16:47;16.10;99.90
15083;DHT22;7640;53.116;6.878;2023-06-10T02:19:18;16.10;99.90
15083;DHT22;7640;53.116;6.878;2023-06-10T02:21:48;16.00;99.90
15083;DHT22;7640;53.116;6.878;2023-06-10T02:24:17;16.00;99.90
15083;DHT22;7640;53.116;6.878;2023-06-10T02:26:46;15.90;99.90
15083;DHT22;7640;53.116;6.878;2023-06-10T02:29:16;16.00;99.90
15083;DHT22;7640;53.116;6.878;2023-06-10T02:31:44;15.90;99.90
15083;DHT22;7640;53.116;6.878;2023-06-10T02:34:17;15.80;99.90
15083;DHT22;7640;53.116;6.878;2023-06-10T02:36:56;15.80;99.90
15083;DHT22;7640;53.116;6.878;2023-06-10T02:39:25;15.80;99.90
15083;DHT22;7640;53.116;6.878;2023-06-10T02:41:54;15.70;99.90
15083;DHT22;7640;53.116;6.878;2023-06-10T02:44:24;15.70;99.90
15083;DHT22;7640;53.116;6.878;2023-06-10T02:46:52;15.70;99.90
15083;DHT22;7640;53.116;6.878;2023-06-10T02:49:21;15.70;99.90
15083;DHT22;7640;53.116;6.878;2023-06-10T02:51:50;15.60;99.90
15083;DHT22;7640;53.116;6.878;2023-06-10T02:54:20;15.60;99.90
15083;DHT22;7640;53.116;6.878;2023-06-10T02:56:51;15.60;99.90
15083;DHT22;7640;53.116;6.878;2023-06-10T02:59:21;15.50;99.90
15083;DHT22;7640;53.116;6.878;2023-06-10T03:01:54;15.50;99.90
15083;DHT22;7640;53.116;6.878;2023-06-10T03:04:22;15.50;99.90
15083;DHT22;7640;53.116;6.878;2023-06-10T03:06:52;15.40;99.90
15083;DHT22;7640;53.116;6.878;2023-06-10T03:09:21;15.40;99.90
15083;DHT22;7640;53.116;6.878;2023-06-10T03:11:49;15.40;99.90
15083;DHT22;7640;53.116;6.878;2023-06-10T03:14:18;15.30;99.90
15083;DHT22;7640;53.116;6.878;2023-06-10T03:16:48;15.30;99.90
15083;DHT22;7640;53.116;6.878;2023-06-10T03:19:16;15.30;99.90
15083;DHT22;7640;53.116;6.878;2023-06-10T03:21:45;15.20;99.90
15083;DHT22;7640;53.116;6.878;2023-06-10T03:24:13;15.20;99.90
15083;DHT22;7640;53.116;6.878;2023-06-10T03:26:43;15.20;99.90
15083;DHT22;7640;53.116;6.878;2023-06-10T03:29:15;15.10;99.90
15083;DHT22;7640;53.116;6.878;2023-06-10T03:31:44;15.10;99.90
15083;DHT22;7640;53.116;6.878;2023-06-10T03:34:14;15.10;99.90
15083;DHT22;7640;53.116;6.878;2023-06-10T03:36:42;15.00;99.90
15083;DHT22;7640;53.116;6.878;2023-06-10T03:39:11;15.00;99.90
15083;DHT22;7640;53.116;6.878;2023-06-10T03:41:39;15.00;99.90
15083;DHT22;7640;53.116;6.878;2023-06-10T03:44:08;15.00;99.90
15083;DHT22;7640;53.116;6.878;2023-06-10T03:46:36;15.00;99.90
15083;DHT22;7640;53.116;6.878;2023-06-10T03:49:05;15.00;99.90
15083;DHT22;7640;53.116;6.878;2023-06-10T03:51:36;15.00;99.90
15083;DHT22;7640;53.116;6.878;2023-06-10T03:54:04;15.00;99.90
15083;DHT22;7640;53.116;6.878;2023-06-10T03:56:33;15.00;99.90
15083;DHT22;7640;53.116;6.878;2023-06-10T03:59:03;15.00;99.90
15083;DHT22;7640;53.116;6.878;2023-06-10T04:01:32;15.00;99.90
15083;DHT22;7640;53.116;6.878;2023-06-10T04:04:02;15.00;99.90
15083;DHT22;7640;53.116;6.878;2023-06-10T04:06:30;15.10;99.90
15083;DHT22;7640;53.116;6.878;2023-06-10T04:09:00;15.10;99.90
15083;DHT22;7640;53.116;6.878;2023-06-10T04:11:32;15.10;99.90
15083;DHT22;7640;53.116;6.878;2023-06-10T04:14:01;15.10;99.90
15083;DHT22;7640;53.116;6.878;2023-06-10T04:16:29;15.20;99.90
15083;DHT22;7640;53.116;6.878;2023-06-10T04:18:59;15.20;99.90
15083;DHT22;7640;53.116;6.878;2023-06-10T04:21:27;15.20;99.90
15083;DHT22;7640;53.116;6.878;2023-06-10T04:23:56;15.30;99.90
15083;DHT22;7640;53.116;6.878;2023-06-10T04:26:27;15.30;99.90
15083;DHT22;7640;53.116;6.878;2023-06-10T04:28:55;15.30;99.90
15083;DHT22;7640;53.116;6.878;2023-06-10T04:31:24;15.40;99.90
15083;DHT22;7640;53.116;6.878;2023-06-10T04:33:53;15.40;99.90
15083;DHT22;7640;53.116;6.878;2023-06-10T04:36:24;15.50;99.90
15083;DHT22;7640;53.116;6.878;2023-06-10T04:38:52;15.50;99.90
15083;DHT22;7640;53.116;6.878;2023-06-10T04:41:21;15.50;99.90
15083;DHT22;7640;53.116;6.878;2023-06-10T04:43:51;15.60;99.90
15083;DHT22;7640;53.116;6.878;2023-06-10T04:46:20;15.60;99.90
15083;DHT22;7640;53.116;6.878;2023-06-10T04:48:49;15.70;99.90
15083;DHT22;7640;53.116;6.878;2023-06-10T04:51:17;15.80;99.90
15083;DHT22;7640;53.116;6.878;2023-06-10T04:53:45;15.80;99.90
15083;DHT22;7640;53.116;6.878;2023-06-10T04:56:14;15.90;99.90
15083;DHT22;7640;53.116;6.878;2023-06-10T04:58:43;15.90;99.90
15083;DHT22;7640;53.116;6.878;2023-06-10T05:01:12;16.00;99.90
15083;DHT22;7640;53.116;6.878;2023-06-10T05:03:41;16.10;99.90
15083;DHT22;7640;53.116;6.878;2023-06-10T05:06:10;16.10;99.90
15083;DHT22;7640;53.116;6.878;2023-06-10T05:08:38;16.10;99.90
15083;DHT22;7640;53.116;6.878;2023-06-10T05:11:07;16.20;99.90
15083;DHT22;7640;53.116;6.878;2023-06-10T05:13:35;16.20;99.90
15083;DHT22;7640;53.116;6.878;2023-06-10T05:16:04;16.30;99.90
15083;DHT22;7640;53.116;6.878;2023-06-10T05:18:34;16.30;99.90
15083;DHT22;7640;53.116;6.878;2023-06-10T05:21:04;16.40;99.90
15083;DHT22;7640;53.116;6.878;2023-06-10T05:23:33;16.40;99.90
15083;DHT22;7640;53.116;6.878;2023-06-10T05:26:01;16.50;99.90
15083;DHT22;7640;53.116;6.878;2023-06-10T05:28:30;16.60;99.90
15083;DHT22;7640;53.116;6.878;2023-06-10T05:30:58;16.70;99.90
15083;DHT22;7640;53.116;6.878;2023-06-10T05:33:27;16.70;99.90
15083;DHT22;7640;53.116;6.878;2023-06-10T05:35:57;16.80;99.90
15083;DHT22;7640;53.116;6.878;2023-06-10T05:38:26;16.90;99.90
15083;DHT22;7640;53.116;6.878;2023-06-10T05:40:54;16.90;99.90
15083;DHT22;7640;53.116;6.878;2023-06-10T05:43:25;17.00;99.90
15083;DHT22;7640;53.116;6.878;2023-06-10T05:45:54;17.00;99.90
15083;DHT22;7640;53.116;6.878;2023-06-10T05:48:22;17.10;99.90
15083;DHT22;7640;53.116;6.878;2023-06-10T05:50:51;17.20;99.90
15083;DHT22;7640;53.116;6.878;2023-06-10T05:53:21;17.20;99.90
15083;DHT22;7640;53.116;6.878;2023-06-10T05:55:49;17.30;99.90
15083;DHT22;7640;53.116;6.878;2023-06-10T05:58:19;17.40;99.90
15083;DHT22;7640;53.116;6.878;2023-06-10T06:00:48;17.40;99.90
15083;DHT22;7640;53.116;6.878;2023-06-10T06:03:17;17.50;99.90
15083;DHT22;7640;53.116;6.878;2023-06-10T06:05:46;17.70;99.90
15083;DHT22;7640;53.116;6.878;2023-06-10T06:08:15;17.70;99.90
15083;DHT22;7640;53.116;6.878;2023-06-10T06:10:48;17.80;99.90
15083;DHT22;7640;53.116;6.878;2023-06-10T06:13:17;17.90;99.90
15083;DHT22;7640;53.116;6.878;2023-06-10T06:15:46;18.00;99.90
15083;DHT22;7640;53.116;6.878;2023-06-10T06:18:14;18.10;99.90
15083;DHT22;7640;53.116;6.878;2023-06-10T06:20:43;18.20;99.90
15083;DHT22;7640;53.116;6.878;2023-06-10T06:23:13;18.20;99.90
15083;DHT22;7640;53.116;6.878;2023-06-10T06:25:42;18.40;99.90
15083;DHT22;7640;53.116;6.878;2023-06-10T06:28:12;18.40;99.90
15083;DHT22;7640;53.116;6.878;2023-06-10T06:30:40;18.60;99.90
15083;DHT22;7640;53.116;6.878;2023-06-10T06:33:09;18.70;99.90
15083;DHT22;7640;53.116;6.878;2023-06-10T06:35:39;18.80;99.90
15083;DHT22;7640;53.116;6.878;2023-06-10T06:38:08;18.80;99.90
15083;DHT22;7640;53.116;6.878;2023-06-10T06:40:36;18.90;99.90
15083;DHT22;7640;53.116;6.878;2023-06-10T06:43:05;19.00;99.90
15083;DHT22;7640;53.116;6.878;2023-06-10T06:45:35;19.10;99.90
15083;DHT22;7640;53.116;6.878;2023-06-10T06:48:04;19.10;99.90
15083;DHT22;7640;53.116;6.878;2023-06-10T06:50:33;19.20;99.90
15083;DHT22;7640;53.116;6.878;2023-06-10T06:53:02;19.30;99.90
15083;DHT22;7640;53.116;6.878;2023-06-10T06:55:30;19.30;99.90
15083;DHT22;7640;53.116;6.878;2023-06-10T06:57:59;19.40;99.90
15083;DHT22;7640;53.116;6.878;2023-06-10T07:00:29;19.40;99.90
15083;DHT22;7640;53.116;6.878;2023-06-10T07:02:59;19.50;99.90
15083;DHT22;7640;53.116;6.878;2023-06-10T07:05:28;19.60;99.90
15083;DHT22;7640;53.116;6.878;2023-06-10T07:07:57;19.60;99.90
15083;DHT22;7640;53.116;6.878;2023-06-10T07:10:26;19.70;99.90
15083;DHT22;7640;53.116;6.878;2023-06-10T07:12:55;19.80;99.90
15083;DHT22;7640;53.116;6.878;2023-06-10T07:15:23;19.80;99.90
15083;DHT22;7640;53.116;6.878;2023-06-10T07:17:54;19.90;99.90
15083;DHT22;7640;53.116;6.878;2023-06-10T07:20:24;20.00;99.90
15083;DHT22;7640;53.116;6.878;2023-06-10T07:22:53;20.10;99.90
15083;DHT22;7640;53.116;6.878;2023-06-10T07:25:22;20.10;99.90
15083;DHT22;7640;53.116;6.878;2023-06-10T07:27:50;20.20;99.90
15083;DHT22;7640;53.116;6.878;2023-06-10T07:30:19;20.30;99.90
15083;DHT22;7640;53.116;6.878;2023-06-10T07:32:47;20.40;99.90
15083;DHT22;7640;53.116;6.878;2023-06-10T07:35:16;20.60;99.90
15083;DHT22;7640;53.116;6.878;2023-06-10T07:37:45;20.70;99.90
15083;DHT22;7640;53.116;6.878;2023-06-10T07:40:14;20.90;99.90
15083;DHT22;7640;53.116;6.878;2023-06-10T07:42:42;21.00;99.90
15083;DHT22;7640;53.116;6.878;2023-06-10T07:45:11;21.00;99.90
15083;DHT22;7640;53.116;6.878;2023-06-10T07:47:39;21.20;99.90
15083;DHT22;7640;53.116;6.878;2023-06-10T07:50:09;21.20;99.90
15083;DHT22;7640;53.116;6.878;2023-06-10T07:52:38;21.30;99.90
15083;DHT22;7640;53.116;6.878;2023-06-10T07:55:08;21.30;99.90
15083;DHT22;7640;53.116;6.878;2023-06-10T07:57:38;21.40;99.90
15083;DHT22;7640;53.116;6.878;2023-06-10T08:00:08;21.50;99.90
15083;DHT22;7640;53.116;6.878;2023-06-10T08:02:37;21.60;99.90
15083;DHT22;7640;53.116;6.878;2023-06-10T08:05:06;21.70;99.90
15083;DHT22;7640;53.116;6.878;2023-06-10T08:07:36;21.80;99.90
15083;DHT22;7640;53.116;6.878;2023-06-10T08:10:06;22.00;99.90
15083;DHT22;7640;53.116;6.878;2023-06-10T08:12:36;22.10;99.90
15083;DHT22;7640;53.116;6.878;2023-06-10T08:15:06;22.20;99.90
15083;DHT22;7640;53.116;6.878;2023-06-10T08:17:35;22.30;99.90
15083;DHT22;7640;53.116;6.878;2023-06-10T08:20:06;22.40;99.90
15083;DHT22;7640;53.116;6.878;2023-06-10T08:22:35;22.50;99.90
15083;DHT22;7640;53.116;6.878;2023-06-10T08:25:05;22.50;99.90
15083;DHT22;7640;53.116;6.878;2023-06-10T08:27:35;22.60;99.90
15083;DHT22;7640;53.116;6.878;2023-06-10T08:30:05;22.80;99.90
15083;DHT22;7640;53.116;6.878;2023-06-10T08:32:34;22.90;99.90
15083;DHT22;7640;53.116;6.878;2023-06-10T08:35:06;23.00;99.90
15083;DHT22;7640;53.116;6.878;2023-06-10T08:37:35;23.10;99.90
15083;DHT22;7640;53.116;6.878;2023-06-10T08:40:09;23.20;99.90
15083;DHT22;7640;53.116;6.878;2023-06-10T08:42:42;23.30;99.90
15083;DHT22;7640;53.116;6.878;2023-06-10T08:45:17;23.40;99.90
15083;DHT22;7640;53.116;6.878;2023-06-10T08:47:49;23.40;99.90
15083;DHT22;7640;53.116;6.878;2023-06-10T08:50:21;23.50;99.90
15083;DHT22;7640;53.116;6.878;2023-06-10T08:52:54;23.50;99.90
15083;DHT22;7640;53.116;6.878;2023-06-10T08:55:29;23.60;99.90
15083;DHT22;7640;53.116;6.878;2023-06-10T08:58:01;23.80;99.90
15083;DHT22;7640;53.116;6.878;2023-06-10T09:00:31;23.90;99.90
15083;DHT22;7640;53.116;6.878;2023-06-10T09:03:00;24.00;99.90
15083;DHT22;7640;53.116;6.878;2023-06-10T09:05:33;23.80;99.90
15083;DHT22;7640;53.116;6.878;2023-06-10T09:08:04;24.20;99.90
15083;DHT22;7640;53.116;6.878;2023-06-10T09:10:34;24.40;99.90
15083;DHT22;7640;53.116;6.878;2023-06-10T09:13:05;24.50;99.90
15083;DHT22;7640;53.116;6.878;2023-06-10T09:15:35;24.60;99.90
15083;DHT22;7640;53.116;6.878;2023-06-10T09:18:03;24.70;99.90
15083;DHT22;7640;53.116;6.878;2023-06-10T09:20:33;24.80;99.90
15083;DHT22;7640;53.116;6.878;2023-06-10T09:23:01;24.90;99.90
15083;DHT22;7640;53.116;6.878;2023-06-10T09:25:35;25.00;99.90
15083;DHT22;7640;53.116;6.878;2023-06-10T09:28:13;25.10;99.90
15083;DHT22;7640;53.116;6.878;2023-06-10T09:30:42;25.20;99.90
15083;DHT22;7640;53.116;6.878;2023-06-10T09:33:12;25.30;99.90
15083;DHT22;7640;53.116;6.878;2023-06-10T09:35:46;25.40;99.90
15083;DHT22;7640;53.116;6.878;2023-06-10T09:38:19;25.50;99.90
15083;DHT22;7640;53.116;6.878;2023-06-10T09:40:49;25.70;99.90
15083;DHT22;7640;53.116;6.878;2023-06-10T09:43:20;25.80;99.90
15083;DHT22;7640;53.116;6.878;2023-06-10T09:45:49;25.90;99.90
15083;DHT22;7640;53.116;6.878;2023-06-10T09:48:20;26.00;99.90
15083;DHT22;7640;53.116;6.878;2023-06-10T09:50:49;26.10;99.90
15083;DHT22;7640;53.116;6.878;2023-06-10T09:53:17;26.20;99.90
15083;DHT22;7640;53.116;6.878;2023-06-10T09:55:46;26.30;99.80
15083;DHT22;7640;53.116;6.878;2023-06-10T09:58:15;26.30;99.60
15083;DHT22;7640;53.116;6.878;2023-06-10T10:00:52;26.50;99.50
15083;DHT22;7640;53.116;6.878;2023-06-10T10:03:22;26.50;99.50
15083;DHT22;7640;53.116;6.878;2023-06-10T10:05:58;26.60;99.00
15083;DHT22;7640;53.116;6.878;2023-06-10T10:08:27;26.60;98.80
15083;DHT22;7640;53.116;6.878;2023-06-10T10:10:57;26.80;99.00
15083;DHT22;7640;53.116;6.878;2023-06-10T10:13:26;26.90;98.90
15083;DHT22;7640;53.116;6.878;2023-06-10T10:16:00;27.00;98.60
15083;DHT22;7640;53.116;6.878;2023-06-10T10:18:32;27.10;98.00
15083;DHT22;7640;53.116;6.878;2023-06-10T10:21:05;27.20;98.20
15083;DHT22;7640;53.116;6.878;2023-06-10T10:23:39;27.30;98.00
15083;DHT22;7640;53.116;6.878;2023-06-10T10:26:10;27.40;97.50
15083;DHT22;7640;53.116;6.878;2023-06-10T10:28:44;27.50;97.40
15083;DHT22;7640;53.116;6.878;2023-06-10T10:31:23;27.60;97.40
15083;DHT22;7640;53.116;6.878;2023-06-10T10:33:55;27.70;97.20
15083;DHT22;7640;53.116;6.878;2023-06-10T10:36:27;27.80;96.70
15083;DHT22;7640;53.116;6.878;2023-06-10T10:38:59;27.90;96.70
15083;DHT22;7640;53.116;6.878;2023-06-10T10:41:30;28.00;96.90
15083;DHT22;7640;53.116;6.878;2023-06-10T10:44:00;28.00;96.90
15083;DHT22;7640;53.116;6.878;2023-06-10T10:46:42;28.10;97.00
15083;DHT22;7640;53.116;6.878;2023-06-10T10:49:13;28.20;97.00
15083;DHT22;7640;53.116;6.878;2023-06-10T10:51:55;28.30;96.10
15083;DHT22;7640;53.116;6.878;2023-06-10T10:54:31;28.30;95.90
15083;DHT22;7640;53.116;6.878;2023-06-10T10:57:10;28.50;95.30
15083;DHT22;7640;53.116;6.878;2023-06-10T11:02:40;28.50;95.40
15083;DHT22;7640;53.116;6.878;2023-06-10T11:05:14;28.70;94.90
15083;DHT22;7640;53.116;6.878;2023-06-10T11:07:52;28.80;94.80
15083;DHT22;7640;53.116;6.878;2023-06-10T11:10:30;28.90;95.30
15083;DHT22;7640;53.116;6.878;2023-06-10T11:12:59;28.90;94.60
15083;DHT22;7640;53.116;6.878;2023-06-10T11:15:28;29.00;94.10
15083;DHT22;7640;53.116;6.878;2023-06-10T11:18:21;29.10;93.90
15083;DHT22;7640;53.116;6.878;2023-06-10T11:20:53;29.10;94.00
15083;DHT22;7640;53.116;6.878;2023-06-10T11:23:41;29.10;94.50
15083;DHT22;7640;53.116;6.878;2023-06-10T11:26:16;29.30;94.70
15083;DHT22;7640;53.116;6.878;2023-06-10T11:29:16;29.30;93.90
15083;DHT22;7640;53.116;6.878;2023-06-10T11:31:46;29.40;93.30
15083;DHT22;7640;53.116;6.878;2023-06-10T11:34:25;29.40;93.40
15083;DHT22;7640;53.116;6.878;2023-06-10T11:36:56;29.50;93.30
15083;DHT22;7640;53.116;6.878;2023-06-10T11:39:27;29.60;93.10
15083;DHT22;7640;53.116;6.878;2023-06-10T11:41:56;29.60;93.10
15083;DHT22;7640;53.116;6.878;2023-06-10T11:44:28;29.70;92.90
15083;DHT22;7640;53.116;6.878;2023-06-10T11:46:59;29.90;93.30
15083;DHT22;7640;53.116;6.878;2023-06-10T11:49:28;30.10;92.60
15083;DHT22;7640;53.116;6.878;2023-06-10T11:51:57;30.20;92.00
15083;DHT22;7640;53.116;6.878;2023-06-10T11:54:25;30.40;90.70
15083;DHT22;7640;53.116;6.878;2023-06-10T11:56:57;30.70;90.80
15083;DHT22;7640;53.116;6.878;2023-06-10T11:59:27;30.90;91.40
15083;DHT22;7640;53.116;6.878;2023-06-10T12:01:56;31.10;90.80
15083;DHT22;7640;53.116;6.878;2023-06-10T12:04:25;31.40;90.50
15083;DHT22;7640;53.116;6.878;2023-06-10T12:06:55;31.50;90.40
15083;DHT22;7640;53.116;6.878;2023-06-10T12:09:24;31.70;90.40
15083;DHT22;7640;53.116;6.878;2023-06-10T12:11:58;31.90;89.60
15083;DHT22;7640;53.116;6.878;2023-06-10T12:14:49;32.10;89.70
15083;DHT22;7640;53.116;6.878;2023-06-10T12:17:21;32.40;89.60
15083;DHT22;7640;53.116;6.878;2023-06-10T12:19:51;32.60;88.60
15083;DHT22;7640;53.116;6.878;2023-06-10T12:22:21;32.60;87.90
15083;DHT22;7640;53.116;6.878;2023-06-10T12:25:00;32.80;87.30
15083;DHT22;7640;53.116;6.878;2023-06-10T12:27:30;32.90;86.60
15083;DHT22;7640;53.116;6.878;2023-06-10T12:30:00;33.10;86.20
15083;DHT22;7640;53.116;6.878;2023-06-10T12:32:40;33.40;87.60
15083;DHT22;7640;53.116;6.878;2023-06-10T12:35:12;33.70;86.50
15083;DHT22;7640;53.116;6.878;2023-06-10T12:37:43;33.90;85.90
15083;DHT22;7640;53.116;6.878;2023-06-10T12:40:27;34.10;83.90
15083;DHT22;7640;53.116;6.878;2023-06-10T12:42:56;34.10;83.40
15083;DHT22;7640;53.116;6.878;2023-06-10T12:45:28;34.30;83.90
15083;DHT22;7640;53.116;6.878;2023-06-10T12:48:08;34.50;82.60
15083;DHT22;7640;53.116;6.878;2023-06-10T12:50:37;34.70;81.80
15083;DHT22;7640;53.116;6.878;2023-06-10T12:53:09;34.90;81.50
15083;DHT22;7640;53.116;6.878;2023-06-10T12:55:39;35.00;80.70
15083;DHT22;7640;53.116;6.878;2023-06-10T12:58:07;35.20;80.00
15083;DHT22;7640;53.116;6.878;2023-06-10T13:00:36;35.40;79.00
15083;DHT22;7640;53.116;6.878;2023-06-10T13:03:05;35.50;77.90
15083;DHT22;7640;53.116;6.878;2023-06-10T13:05:34;35.70;77.70
15083;DHT22;7640;53.116;6.878;2023-06-10T13:08:04;35.90;77.00
15083;DHT22;7640;53.116;6.878;2023-06-10T13:10:34;36.10;76.80
15083;DHT22;7640;53.116;6.878;2023-06-10T13:13:03;36.30;75.70
15083;DHT22;7640;53.116;6.878;2023-06-10T13:15:35;36.40;75.70
15083;DHT22;7640;53.116;6.878;2023-06-10T13:18:09;36.50;75.80
15083;DHT22;7640;53.116;6.878;2023-06-10T13:20:38;36.70;75.70
15083;DHT22;7640;53.116;6.878;2023-06-10T13:23:06;37.00;75.70
15083;DHT22;7640;53.116;6.878;2023-06-10T13:25:36;37.30;74.40
15083;DHT22;7640;53.116;6.878;2023-06-10T13:28:07;37.40;73.40
15083;DHT22;7640;53.116;6.878;2023-06-10T13:30:36;37.50;73.40
15083;DHT22;7640;53.116;6.878;2023-06-10T13:33:04;37.70;72.90
15083;DHT22;7640;53.116;6.878;2023-06-10T13:35:33;37.90;71.80
15083;DHT22;7640;53.116;6.878;2023-06-10T13:38:01;38.00;70.40
15083;DHT22;7640;53.116;6.878;2023-06-10T13:40:30;38.10;70.50
15083;DHT22;7640;53.116;6.878;2023-06-10T13:43:01;38.20;70.00
15083;DHT22;7640;53.116;6.878;2023-06-10T13:45:29;38.30;68.50
15083;DHT22;7640;53.116;6.878;2023-06-10T13:47:58;38.50;69.40
15083;DHT22;7640;53.116;6.878;2023-06-10T13:50:27;38.70;69.40
15083;DHT22;7640;53.116;6.878;2023-06-10T13:52:55;38.80;66.40
15083;DHT22;7640;53.116;6.878;2023-06-10T13:55:24;38.90;64.20
15083;DHT22;7640;53.116;6.878;2023-06-10T13:57:52;39.00;63.40
15083;DHT22;7640;53.116;6.878;2023-06-10T14:00:22;39.30;62.80
15083;DHT22;7640;53.116;6.878;2023-06-10T14:02:52;39.60;61.10
15083;DHT22;7640;53.116;6.878;2023-06-10T14:05:20;39.70;60.30
15083;DHT22;7640;53.116;6.878;2023-06-10T14:07:49;40.00;59.30
15083;DHT22;7640;53.116;6.878;2023-06-10T14:10:17;40.30;58.80
15083;DHT22;7640;53.116;6.878;2023-06-10T14:12:46;40.60;58.50
15083;DHT22;7640;53.116;6.878;2023-06-10T14:15:14;40.80;58.30
15083;DHT22;7640;53.116;6.878;2023-06-10T14:17:44;41.10;58.00
15083;DHT22;7640;53.116;6.878;2023-06-10T14:20:13;41.40;57.60
15083;DHT22;7640;53.116;6.878;2023-06-10T14:22:42;41.70;58.20
15083;DHT22;7640;53.116;6.878;2023-06-10T14:25:10;41.90;58.00
15083;DHT22;7640;53.116;6.878;2023-06-10T14:27:39;42.00;56.80
15083;DHT22;7640;53.116;6.878;2023-06-10T14:30:08;42.00;57.00
15083;DHT22;7640;53.116;6.878;2023-06-10T14:32:38;42.20;56.40
15083;DHT22;7640;53.116;6.878;2023-06-10T14:35:08;42.20;56.40
15083;DHT22;7640;53.116;6.878;2023-06-10T14:37:37;42.40;56.10
15083;DHT22;7640;53.116;6.878;2023-06-10T14:40:07;42.50;56.20
15083;DHT22;7640;53.116;6.878;2023-06-10T14:42:36;42.60;56.10
15083;DHT22;7640;53.116;6.878;2023-06-10T14:45:06;42.80;56.30
15083;DHT22;7640;53.116;6.878;2023-06-10T14:47:37;43.00;56.10
15083;DHT22;7640;53.116;6.878;2023-06-10T14:50:08;43.00;55.60
15083;DHT22;7640;53.116;6.878;2023-06-10T14:52:37;43.10;55.30
15083;DHT22;7640;53.116;6.878;2023-06-10T14:55:06;43.10;56.00
15083;DHT22;7640;53.116;6.878;2023-06-10T14:57:36;43.50;55.30
15083;DHT22;7640;53.116;6.878;2023-06-10T15:00:05;43.70;54.90
15083;DHT22;7640;53.116;6.878;2023-06-10T15:02:35;43.90;54.80
15083;DHT22;7640;53.116;6.878;2023-06-10T15:05:04;44.10;54.20
15083;DHT22;7640;53.116;6.878;2023-06-10T15:07:34;44.30;53.70
15083;DHT22;7640;53.116;6.878;2023-06-10T15:10:03;44.50;53.50
15083;DHT22;7640;53.116;6.878;2023-06-10T15:12:33;44.60;53.50
15083;DHT22;7640;53.116;6.878;2023-06-10T15:15:02;44.80;52.30
15083;DHT22;7640;53.116;6.878;2023-06-10T15:17:30;44.70;52.20
15083;DHT22;7640;53.116;6.878;2023-06-10T15:19:59;44.80;52.20
15083;DHT22;7640;53.116;6.878;2023-06-10T15:22:28;45.00;52.40
15083;DHT22;7640;53.116;6.878;2023-06-10T15:24:58;45.20;52.30
15083;DHT22;7640;53.116;6.878;2023-06-10T15:27:28;45.40;51.60
15083;DHT22;7640;53.116;6.878;2023-06-10T15:29:56;45.50;51.30
15083;DHT22;7640;53.116;6.878;2023-06-10T15:32:25;45.50;51.50
15083;DHT22;7640;53.116;6.878;2023-06-10T15:34:54;45.70;51.20
15083;DHT22;7640;53.116;6.878;2023-06-10T15:37:23;45.80;50.80
15083;DHT22;7640;53.116;6.878;2023-06-10T15:39:51;46.00;50.90
15083;DHT22;7640;53.116;6.878;2023-06-10T15:42:21;46.20;50.30
15083;DHT22;7640;53.116;6.878;2023-06-10T15:44:50;46.20;50.00
15083;DHT22;7640;53.116;6.878;2023-06-10T15:47:19;46.10;50.00
15083;DHT22;7640;53.116;6.878;2023-06-10T15:49:48;46.20;49.70
15083;DHT22;7640;53.116;6.878;2023-06-10T15:52:17;46.30;49.50
15083;DHT22;7640;53.116;6.878;2023-06-10T15:54:45;46.40;49.20
15083;DHT22;7640;53.116;6.878;2023-06-10T15:57:13;46.30;48.90
15083;DHT22;7640;53.116;6.878;2023-06-10T15:59:43;46.40;49.00
15083;DHT22;7640;53.116;6.878;2023-06-10T16:02:12;46.60;49.40
15083;DHT22;7640;53.116;6.878;2023-06-10T16:04:40;46.60;49.10
15083;DHT22;7640;53.116;6.878;2023-06-10T16:07:08;46.60;48.90